sensor_id;sensor_type;location;lat;lon;timestamp;P1;durP1;ratioP1;P2;durP2;ratioP2
4452;SDS011;2239;48.152;11.584;2023-11-21T00:01:52;3.70;;;1.00;;
4452;SDS011;2239;48.152;11.584;2023-11-21T00:04:17;2.47;;;0.80;;
4452;SDS011;2239;48.152;11.584;2023-11-21T00:06:43;3.47;;;0.87;;
4452;SDS011;2239;48.152;11.584;2023-11-21T00:09:11;1.90;;;1.20;;
4452;SDS011;2239;48.152;11.584;2023-11-21T00:11:37;0.97;;;0.63;;
4452;SDS011;2239;48.152;11.584;2023-11-21T00:14:03;1.00;;;0.73;;
4452;SDS011;2239;48.152;11.584;2023-11-21T00:16:29;3.70;;;0.87;;
4452;SDS011;2239;48.152;11.584;2023-11-21T00:18:55;1.67;;;1.00;;
4452;SDS011;2239;48.152;11.584;2023-11-21T00:21:20;2.23;;;0.80;;
4452;SDS011;2239;48.152;11.584;2023-11-21T00:23:46;3.03;;;0.90;;
4452;SDS011;2239;48.152;11.584;2023-11-21T00:26:11;1.73;;;0.97;;
4452;SDS011;2239;48.152;11.584;2023-11-21T00:28:37;3.13;;;0.80;;
4452;SDS011;2239;48.152;11.584;2023-11-21T00:31:03;4.27;;;0.80;;
4452;SDS011;2239;48.152;11.584;2023-11-21T00:33:29;4.73;;;1.00;;
4452;SDS011;2239;48.152;11.584;2023-11-21T00:35:54;1.93;;;1.00;;
4452;SDS011;2239;48.152;11.584;2023-11-21T00:38:20;3.00;;;0.70;;
4452;SDS011;2239;48.152;11.584;2023-11-21T00:40:46;1.13;;;0.67;;
4452;SDS011;2239;48.152;11.584;2023-11-21T00:43:11;3.30;;;0.90;;
4452;SDS011;2239;48.152;11.584;2023-11-21T00:45:37;5.33;;;0.97;;
4452;SDS011;2239;48.152;11.584;2023-11-21T00:48:02;6.60;;;0.60;;
4452;SDS011;2239;48.152;11.584;2023-11-21T00:50:29;2.50;;;0.70;;
4452;SDS011;2239;48.152;11.584;2023-11-21T00:52:55;2.60;;;0.73;;
4452;SDS011;2239;48.152;11.584;2023-11-21T00:55:21;1.17;;;0.60;;
4452;SDS011;2239;48.152;11.584;2023-11-21T00:57:47;0.60;;;0.60;;
4452;SDS011;2239;48.152;11.584;2023-11-21T01:00:13;4.20;;;1.10;;
4452;SDS011;2239;48.152;11.584;2023-11-21T01:02:42;1.43;;;0.60;;
4452;SDS011;2239;48.152;11.584;2023-11-21T01:05:09;2.57;;;0.80;;
4452;SDS011;2239;48.152;11.584;2023-11-21T01:07:35;0.70;;;0.53;;
4452;SDS011;2239;48.152;11.584;2023-11-21T01:10:01;2.40;;;0.87;;
4452;SDS011;2239;48.152;11.584;2023-11-21T01:12:28;1.67;;;0.90;;
4452;SDS011;2239;48.152;11.584;2023-11-21T01:14:53;6.50;;;1.30;;
4452;SDS011;2239;48.152;11.584;2023-11-21T01:17:19;1.90;;;0.67;;
4452;SDS011;2239;48.152;11.584;2023-11-21T01:19:47;2.00;;;0.80;;
4452;SDS011;2239;48.152;11.584;2023-11-21T01:22:13;3.03;;;1.03;;
4452;SDS011;2239;48.152;11.584;2023-11-21T01:24:38;3.90;;;0.70;;
4452;SDS011;2239;48.152;11.584;2023-11-21T01:27:04;1.53;;;0.70;;
4452;SDS011;2239;48.152;11.584;2023-11-21T01:29:29;1.10;;;0.73;;
4452;SDS011;2239;48.152;11.584;2023-11-21T01:31:55;1.47;;;0.80;;
4452;SDS011;2239;48.152;11.584;2023-11-21T01:34:22;1.23;;;0.90;;
4452;SDS011;2239;48.152;11.584;2023-11-21T01:36:48;2.73;;;0.73;;
4452;SDS011;2239;48.152;11.584;2023-11-21T01:39:13;1.00;;;0.67;;
4452;SDS011;2239;48.152;11.584;2023-11-21T01:41:41;1.90;;;0.93;;
4452;SDS011;2239;48.152;11.584;2023-11-21T01:44:09;1.27;;;0.80;;
4452;SDS011;2239;48.152;11.584;2023-11-21T01:46:35;3.33;;;0.80;;
4452;SDS011;2239;48.152;11.584;2023-11-21T01:49:01;0.97;;;0.80;;
4452;SDS011;2239;48.152;11.584;2023-11-21T01:51:27;2.23;;;0.80;;
4452;SDS011;2239;48.152;11.584;2023-11-21T01:53:52;8.57;;;1.90;;
4452;SDS011;2239;48.152;11.584;2023-11-21T01:56:18;3.00;;;0.80;;
4452;SDS011;2239;48.152;11.584;2023-11-21T01:58:44;2.17;;;0.60;;
4452;SDS011;2239;48.152;11.584;2023-11-21T02:01:11;2.20;;;0.87;;
4452;SDS011;2239;48.152;11.584;2023-11-21T02:03:37;0.80;;;0.60;;
4452;SDS011;2239;48.152;11.584;2023-11-21T02:06:02;7.23;;;1.17;;
4452;SDS011;2239;48.152;11.584;2023-11-21T02:08:28;1.40;;;0.93;;
4452;SDS011;2239;48.152;11.584;2023-11-21T02:10:54;4.03;;;0.70;;
4452;SDS011;2239;48.152;11.584;2023-11-21T02:13:20;4.00;;;0.90;;
4452;SDS011;2239;48.152;11.584;2023-11-21T02:15:45;2.53;;;0.70;;
4452;SDS011;2239;48.152;11.584;2023-11-21T02:18:12;4.40;;;1.00;;
4452;SDS011;2239;48.152;11.584;2023-11-21T02:20:39;1.73;;;0.87;;
4452;SDS011;2239;48.152;11.584;2023-11-21T02:23:06;0.83;;;0.77;;
4452;SDS011;2239;48.152;11.584;2023-11-21T02:25:32;4.13;;;0.97;;
4452;SDS011;2239;48.152;11.584;2023-11-21T02:28:02;0.60;;;0.60;;
4452;SDS011;2239;48.152;11.584;2023-11-21T02:30:28;2.80;;;0.77;;
4452;SDS011;2239;48.152;11.584;2023-11-21T02:32:58;3.30;;;0.80;;
4452;SDS011;2239;48.152;11.584;2023-11-21T02:35:24;0.70;;;0.60;;
4452;SDS011;2239;48.152;11.584;2023-11-21T02:37:53;1.23;;;0.70;;
4452;SDS011;2239;48.152;11.584;2023-11-21T02:40:19;2.50;;;0.70;;
4452;SDS011;2239;48.152;11.584;2023-11-21T02:42:48;1.50;;;0.87;;
4452;SDS011;2239;48.152;11.584;2023-11-21T02:45:16;2.87;;;0.80;;
4452;SDS011;2239;48.152;11.584;2023-11-21T02:47:42;1.10;;;0.70;;
4452;SDS011;2239;48.152;11.584;2023-11-21T02:50:08;0.70;;;0.60;;
4452;SDS011;2239;48.152;11.584;2023-11-21T02:52:34;5.03;;;0.83;;
4452;SDS011;2239;48.152;11.584;2023-11-21T02:55:03;2.50;;;0.90;;
4452;SDS011;2239;48.152;11.584;2023-11-21T02:57:29;1.80;;;0.70;;
4452;SDS011;2239;48.152;11.584;2023-11-21T02:59:55;1.00;;;0.50;;
4452;SDS011;2239;48.152;11.584;2023-11-21T03:02:21;1.43;;;0.67;;
4452;SDS011;2239;48.152;11.584;2023-11-21T03:04:47;0.77;;;0.60;;
4452;SDS011;2239;48.152;11.584;2023-11-21T03:07:14;2.80;;;1.33;;
4452;SDS011;2239;48.152;11.584;2023-11-21T03:09:40;7.00;;;0.87;;
4452;SDS011;2239;48.152;11.584;2023-11-21T03:12:05;1.27;;;0.70;;
4452;SDS011;2239;48.152;11.584;2023-11-21T03:14:31;1.10;;;0.90;;
4452;SDS011;2239;48.152;11.584;2023-11-21T03:16:56;2.63;;;0.80;;
4452;SDS011;2239;48.152;11.584;2023-11-21T03:19:22;0.97;;;0.63;;
4452;SDS011;2239;48.152;11.584;2023-11-21T03:21:48;6.73;;;0.80;;
4452;SDS011;2239;48.152;11.584;2023-11-21T03:24:14;2.60;;;0.80;;
4452;SDS011;2239;48.152;11.584;2023-11-21T03:26:43;3.53;;;1.03;;
4452;SDS011;2239;48.152;11.584;2023-11-21T03:29:09;3.50;;;1.00;;
4452;SDS011;2239;48.152;11.584;2023-11-21T03:31:35;1.10;;;0.77;;
4452;SDS011;2239;48.152;11.584;2023-11-21T03:34:01;3.70;;;0.67;;
4452;SDS011;2239;48.152;11.584;2023-11-21T03:36:26;5.83;;;1.00;;
4452;SDS011;2239;48.152;11.584;2023-11-21T03:38:52;2.50;;;0.70;;
4452;SDS011;2239;48.152;11.584;2023-11-21T03:41:18;1.80;;;0.70;;
4452;SDS011;2239;48.152;11.584;2023-11-21T03:43:43;1.40;;;1.07;;
4452;SDS011;2239;48.152;11.584;2023-11-21T03:46:09;4.00;;;1.53;;
4452;SDS011;2239;48.152;11.584;2023-11-21T03:48:35;1.10;;;0.77;;
4452;SDS011;2239;48.152;11.584;2023-11-21T03:51:00;0.80;;;0.63;;
4452;SDS011;2239;48.152;11.584;2023-11-21T03:53:26;1.33;;;0.70;;
4452;SDS011;2239;48.152;11.584;2023-11-21T03:55:51;5.40;;;1.20;;
4452;SDS011;2239;48.152;11.584;2023-11-21T03:58:17;3.23;;;0.70;;
4452;SDS011;2239;48.152;11.584;2023-11-21T04:00:43;0.83;;;0.57;;
4452;SDS011;2239;48.152;11.584;2023-11-21T04:03:08;1.67;;;0.70;;
4452;SDS011;2239;48.152;11.584;2023-11-21T04:05:34;0.80;;;0.70;;
4452;SDS011;2239;48.152;11.584;2023-11-21T04:07:59;4.10;;;1.00;;
4452;SDS011;2239;48.152;11.584;2023-11-21T04:10:25;1.10;;;0.57;;
4452;SDS011;2239;48.152;11.584;2023-11-21T04:12:50;2.43;;;1.00;;
4452;SDS011;2239;48.152;11.584;2023-11-21T04:15:16;2.73;;;0.70;;
4452;SDS011;2239;48.152;11.584;2023-11-21T04:17:42;0.60;;;0.50;;
4452;SDS011;2239;48.152;11.584;2023-11-21T04:20:08;0.90;;;0.57;;
4452;SDS011;2239;48.152;11.584;2023-11-21T04:22:38;1.37;;;0.60;;
4452;SDS011;2239;48.152;11.584;2023-11-21T04:25:10;3.83;;;0.70;;
4452;SDS011;2239;48.152;11.584;2023-11-21T04:27:36;1.70;;;0.70;;
4452;SDS011;2239;48.152;11.584;2023-11-21T04:30:03;2.13;;;0.90;;
4452;SDS011;2239;48.152;11.584;2023-11-21T04:32:30;2.30;;;0.90;;
4452;SDS011;2239;48.152;11.584;2023-11-21T04:34:55;3.77;;;1.20;;
4452;SDS011;2239;48.152;11.584;2023-11-21T04:37:22;1.90;;;0.67;;
4452;SDS011;2239;48.152;11.584;2023-11-21T04:39:49;1.10;;;0.73;;
4452;SDS011;2239;48.152;11.584;2023-11-21T04:42:14;0.80;;;0.60;;
4452;SDS011;2239;48.152;11.584;2023-11-21T04:44:40;1.97;;;0.53;;
4452;SDS011;2239;48.152;11.584;2023-11-21T04:47:06;0.60;;;0.57;;
4452;SDS011;2239;48.152;11.584;2023-11-21T04:49:32;1.93;;;0.90;;
4452;SDS011;2239;48.152;11.584;2023-11-21T04:51:58;0.97;;;0.50;;
4452;SDS011;2239;48.152;11.584;2023-11-21T04:54:23;0.70;;;0.60;;
4452;SDS011;2239;48.152;11.584;2023-11-21T04:56:49;0.90;;;0.60;;
4452;SDS011;2239;48.152;11.584;2023-11-21T04:59:15;0.90;;;0.60;;
4452;SDS011;2239;48.152;11.584;2023-11-21T05:01:40;1.00;;;0.60;;
4452;SDS011;2239;48.152;11.584;2023-11-21T05:04:06;0.70;;;0.60;;
4452;SDS011;2239;48.152;11.584;2023-11-21T05:06:33;2.93;;;0.70;;
4452;SDS011;2239;48.152;11.584;2023-11-21T05:08:59;0.60;;;0.50;;
4452;SDS011;2239;48.152;11.584;2023-11-21T05:11:25;1.87;;;0.60;;
4452;SDS011;2239;48.152;11.584;2023-11-21T05:13:52;0.70;;;0.50;;
4452;SDS011;2239;48.152;11.584;2023-11-21T05:16:18;1.30;;;0.77;;
4452;SDS011;2239;48.152;11.584;2023-11-21T05:18:44;1.90;;;0.53;;
4452;SDS011;2239;48.152;11.584;2023-11-21T05:21:10;2.83;;;0.90;;
4452;SDS011;2239;48.152;11.584;2023-11-21T05:23:35;1.13;;;0.70;;
4452;SDS011;2239;48.152;11.584;2023-11-21T05:26:02;0.90;;;0.63;;
4452;SDS011;2239;48.152;11.584;2023-11-21T05:28:28;0.87;;;0.60;;
4452;SDS011;2239;48.152;11.584;2023-11-21T05:30:53;2.10;;;0.60;;
4452;SDS011;2239;48.152;11.584;2023-11-21T05:33:19;1.67;;;0.87;;
4452;SDS011;2239;48.152;11.584;2023-11-21T05:35:45;1.10;;;0.70;;
4452;SDS011;2239;48.152;11.584;2023-11-21T05:38:13;3.90;;;0.67;;
4452;SDS011;2239;48.152;11.584;2023-11-21T05:40:40;2.53;;;0.90;;
4452;SDS011;2239;48.152;11.584;2023-11-21T05:43:06;3.60;;;1.27;;
4452;SDS011;2239;48.152;11.584;2023-11-21T05:45:32;2.30;;;0.73;;
4452;SDS011;2239;48.152;11.584;2023-11-21T05:47:58;3.20;;;1.00;;
4452;SDS011;2239;48.152;11.584;2023-11-21T05:50:24;1.27;;;0.60;;
4452;SDS011;2239;48.152;11.584;2023-11-21T05:52:49;1.63;;;0.90;;
4452;SDS011;2239;48.152;11.584;2023-11-21T05:55:15;1.87;;;0.60;;
4452;SDS011;2239;48.152;11.584;2023-11-21T05:57:41;3.33;;;0.60;;
4452;SDS011;2239;48.152;11.584;2023-11-21T06:00:09;3.43;;;0.60;;
4452;SDS011;2239;48.152;11.584;2023-11-21T06:02:39;2.70;;;0.80;;
4452;SDS011;2239;48.152;11.584;2023-11-21T06:05:06;1.13;;;0.70;;
4452;SDS011;2239;48.152;11.584;2023-11-21T06:07:32;1.53;;;0.67;;
4452;SDS011;2239;48.152;11.584;2023-11-21T06:09:59;5.43;;;0.90;;
4452;SDS011;2239;48.152;11.584;2023-11-21T06:12:27;1.87;;;0.83;;
4452;SDS011;2239;48.152;11.584;2023-11-21T06:14:52;3.10;;;0.70;;
4452;SDS011;2239;48.152;11.584;2023-11-21T06:17:18;2.37;;;0.90;;
4452;SDS011;2239;48.152;11.584;2023-11-21T06:19:43;2.93;;;0.83;;
4452;SDS011;2239;48.152;11.584;2023-11-21T06:22:10;1.63;;;0.63;;
4452;SDS011;2239;48.152;11.584;2023-11-21T06:24:36;0.50;;;0.50;;
4452;SDS011;2239;48.152;11.584;2023-11-21T06:27:03;1.20;;;0.67;;
4452;SDS011;2239;48.152;11.584;2023-11-21T06:29:30;0.60;;;0.60;;
4452;SDS011;2239;48.152;11.584;2023-11-21T06:31:56;2.80;;;0.70;;
4452;SDS011;2239;48.152;11.584;2023-11-21T06:34:23;0.70;;;0.50;;
4452;SDS011;2239;48.152;11.584;2023-11-21T06:36:49;2.30;;;0.60;;
4452;SDS011;2239;48.152;11.584;2023-11-21T06:39:14;2.40;;;0.77;;
4452;SDS011;2239;48.152;11.584;2023-11-21T06:41:41;0.67;;;0.60;;
4452;SDS011;2239;48.152;11.584;2023-11-21T06:44:08;1.83;;;1.13;;
4452;SDS011;2239;48.152;11.584;2023-11-21T06:46:33;1.20;;;0.60;;
4452;SDS011;2239;48.152;11.584;2023-11-21T06:48:59;1.17;;;0.60;;
4452;SDS011;2239;48.152;11.584;2023-11-21T06:51:24;1.53;;;0.60;;
4452;SDS011;2239;48.152;11.584;2023-11-21T06:53:50;1.27;;;0.60;;
4452;SDS011;2239;48.152;11.584;2023-11-21T06:56:18;3.50;;;0.60;;
4452;SDS011;2239;48.152;11.584;2023-11-21T06:58:47;1.83;;;0.70;;
4452;SDS011;2239;48.152;11.584;2023-11-21T07:01:14;1.60;;;0.50;;
4452;SDS011;2239;48.152;11.584;2023-11-21T07:03:40;2.90;;;0.70;;
4452;SDS011;2239;48.152;11.584;2023-11-21T07:06:06;1.77;;;0.83;;
4452;SDS011;2239;48.152;11.584;2023-11-21T07:08:32;3.30;;;0.80;;
4452;SDS011;2239;48.152;11.584;2023-11-21T07:10:58;1.13;;;0.80;;
4452;SDS011;2239;48.152;11.584;2023-11-21T07:13:23;0.80;;;0.60;;
4452;SDS011;2239;48.152;11.584;2023-11-21T07:15:49;0.90;;;0.50;;
4452;SDS011;2239;48.152;11.584;2023-11-21T07:18:15;0.77;;;0.57;;
4452;SDS011;2239;48.152;11.584;2023-11-21T07:20:40;1.10;;;0.60;;
4452;SDS011;2239;48.152;11.584;2023-11-21T07:23:06;0.60;;;0.50;;
4452;SDS011;2239;48.152;11.584;2023-11-21T07:25:32;0.70;;;0.57;;
4452;SDS011;2239;48.152;11.584;2023-11-21T07:27:58;1.40;;;0.60;;
4452;SDS011;2239;48.152;11.584;2023-11-21T07:30:25;0.50;;;0.50;;
4452;SDS011;2239;48.152;11.584;2023-11-21T07:32:51;0.80;;;0.67;;
4452;SDS011;2239;48.152;11.584;2023-11-21T07:35:16;5.80;;;0.80;;
4452;SDS011;2239;48.152;11.584;2023-11-21T07:37:42;1.80;;;0.50;;
4452;SDS011;2239;48.152;11.584;2023-11-21T07:40:08;1.50;;;0.67;;
4452;SDS011;2239;48.152;11.584;2023-11-21T07:42:36;0.80;;;0.60;;
4452;SDS011;2239;48.152;11.584;2023-11-21T07:45:02;0.90;;;0.60;;
4452;SDS011;2239;48.152;11.584;2023-11-21T07:47:28;0.60;;;0.50;;
4452;SDS011;2239;48.152;11.584;2023-11-21T07:49:54;4.07;;;0.80;;
4452;SDS011;2239;48.152;11.584;2023-11-21T07:52:21;2.27;;;0.70;;
4452;SDS011;2239;48.152;11.584;2023-11-21T07:54:47;0.93;;;0.60;;
4452;SDS011;2239;48.152;11.584;2023-11-21T07:57:12;1.27;;;0.90;;
4452;SDS011;2239;48.152;11.584;2023-11-21T07:59:38;10.50;;;0.70;;
4452;SDS011;2239;48.152;11.584;2023-11-21T08:02:06;1.40;;;0.77;;
4452;SDS011;2239;48.152;11.584;2023-11-21T08:04:32;2.63;;;0.80;;
4452;SDS011;2239;48.152;11.584;2023-11-21T08:06:57;1.37;;;0.60;;
4452;SDS011;2239;48.152;11.584;2023-11-21T08:09:23;1.00;;;0.60;;
4452;SDS011;2239;48.152;11.584;2023-11-21T08:11:49;1.53;;;0.83;;
4452;SDS011;2239;48.152;11.584;2023-11-21T08:14:14;0.97;;;0.53;;
4452;SDS011;2239;48.152;11.584;2023-11-21T08:16:40;2.40;;;0.73;;
4452;SDS011;2239;48.152;11.584;2023-11-21T08:19:06;1.33;;;0.77;;
4452;SDS011;2239;48.152;11.584;2023-11-21T08:21:34;3.77;;;0.90;;
4452;SDS011;2239;48.152;11.584;2023-11-21T08:24:01;3.27;;;0.87;;
4452;SDS011;2239;48.152;11.584;2023-11-21T08:26:29;1.03;;;0.70;;
4452;SDS011;2239;48.152;11.584;2023-11-21T08:28:55;4.63;;;1.07;;
4452;SDS011;2239;48.152;11.584;2023-11-21T08:31:27;0.90;;;0.70;;
4452;SDS011;2239;48.152;11.584;2023-11-21T08:33:53;0.77;;;0.70;;
4452;SDS011;2239;48.152;11.584;2023-11-21T08:36:21;0.87;;;0.73;;
4452;SDS011;2239;48.152;11.584;2023-11-21T08:38:49;4.40;;;0.90;;
4452;SDS011;2239;48.152;11.584;2023-11-21T08:41:17;1.87;;;0.60;;
4452;SDS011;2239;48.152;11.584;2023-11-21T08:43:46;1.77;;;0.57;;
4452;SDS011;2239;48.152;11.584;2023-11-21T08:46:13;3.40;;;0.70;;
4452;SDS011;2239;48.152;11.584;2023-11-21T08:48:38;1.63;;;0.77;;
4452;SDS011;2239;48.152;11.584;2023-11-21T08:51:06;2.53;;;0.97;;
4452;SDS011;2239;48.152;11.584;2023-11-21T08:53:32;1.00;;;0.67;;
4452;SDS011;2239;48.152;11.584;2023-11-21T08:55:57;0.93;;;0.70;;
4452;SDS011;2239;48.152;11.584;2023-11-21T08:58:23;1.50;;;0.70;;
4452;SDS011;2239;48.152;11.584;2023-11-21T09:00:49;2.43;;;0.60;;
4452;SDS011;2239;48.152;11.584;2023-11-21T09:03:14;1.50;;;0.90;;
4452;SDS011;2239;48.152;11.584;2023-11-21T09:05:40;2.80;;;0.70;;
4452;SDS011;2239;48.152;11.584;2023-11-21T09:08:05;2.83;;;0.80;;
4452;SDS011;2239;48.152;11.584;2023-11-21T09:10:32;0.70;;;0.60;;
4452;SDS011;2239;48.152;11.584;2023-11-21T09:13:00;5.27;;;0.70;;
4452;SDS011;2239;48.152;11.584;2023-11-21T09:15:26;0.73;;;0.70;;
4452;SDS011;2239;48.152;11.584;2023-11-21T09:17:52;1.63;;;0.70;;
4452;SDS011;2239;48.152;11.584;2023-11-21T09:20:18;3.53;;;0.70;;
4452;SDS011;2239;48.152;11.584;2023-11-21T09:22:47;0.70;;;0.60;;
4452;SDS011;2239;48.152;11.584;2023-11-21T09:25:15;1.50;;;0.80;;
4452;SDS011;2239;48.152;11.584;2023-11-21T09:27:41;1.80;;;0.70;;
4452;SDS011;2239;48.152;11.584;2023-11-21T09:30:07;3.40;;;0.73;;
4452;SDS011;2239;48.152;11.584;2023-11-21T09:32:35;2.60;;;0.60;;
4452;SDS011;2239;48.152;11.584;2023-11-21T09:35:02;1.03;;;0.60;;
4452;SDS011;2239;48.152;11.584;2023-11-21T09:37:28;0.70;;;0.70;;
4452;SDS011;2239;48.152;11.584;2023-11-21T09:39:55;0.80;;;0.60;;
4452;SDS011;2239;48.152;11.584;2023-11-21T09:42:23;1.17;;;0.70;;
4452;SDS011;2239;48.152;11.584;2023-11-21T09:47:44;1.57;;;0.70;;
4452;SDS011;2239;48.152;11.584;2023-11-21T09:50:10;2.27;;;0.80;;
4452;SDS011;2239;48.152;11.584;2023-11-21T09:53:20;1.07;;;0.67;;
4452;SDS011;2239;48.152;11.584;2023-11-21T09:55:29;2.10;;;0.70;;
4452;SDS011;2239;48.152;11.584;2023-11-21T09:58:00;1.03;;;0.70;;
4452;SDS011;2239;48.152;11.584;2023-11-21T10:00:28;1.90;;;1.10;;
4452;SDS011;2239;48.152;11.584;2023-11-21T10:02:58;1.20;;;0.90;;
4452;SDS011;2239;48.152;11.584;2023-11-21T10:05:24;1.37;;;0.80;;
4452;SDS011;2239;48.152;11.584;2023-11-21T10:07:50;1.00;;;0.70;;
4452;SDS011;2239;48.152;11.584;2023-11-21T10:10:18;1.33;;;0.80;;
4452;SDS011;2239;48.152;11.584;2023-11-21T10:12:48;1.23;;;0.80;;
4452;SDS011;2239;48.152;11.584;2023-11-21T10:15:18;1.33;;;0.80;;
4452;SDS011;2239;48.152;11.584;2023-11-21T10:17:46;1.20;;;0.73;;
4452;SDS011;2239;48.152;11.584;2023-11-21T10:20:14;1.07;;;0.73;;
4452;SDS011;2239;48.152;11.584;2023-11-21T10:22:41;1.47;;;0.90;;
4452;SDS011;2239;48.152;11.584;2023-11-21T10:25:07;1.10;;;0.70;;
4452;SDS011;2239;48.152;11.584;2023-11-21T10:27:39;1.73;;;0.87;;
4452;SDS011;2239;48.152;11.584;2023-11-21T10:30:06;1.00;;;0.83;;
4452;SDS011;2239;48.152;11.584;2023-11-21T10:32:39;1.73;;;0.80;;
4452;SDS011;2239;48.152;11.584;2023-11-21T10:35:05;1.00;;;0.83;;
4452;SDS011;2239;48.152;11.584;2023-11-21T10:37:38;3.50;;;0.77;;
4452;SDS011;2239;48.152;11.584;2023-11-21T10:40:11;1.53;;;0.77;;
4452;SDS011;2239;48.152;11.584;2023-11-21T10:42:37;1.10;;;0.80;;
4452;SDS011;2239;48.152;11.584;2023-11-21T10:45:04;2.67;;;0.70;;
4452;SDS011;2239;48.152;11.584;2023-11-21T10:47:37;1.30;;;0.80;;
4452;SDS011;2239;48.152;11.584;2023-11-21T10:50:04;2.70;;;0.90;;
4452;SDS011;2239;48.152;11.584;2023-11-21T10:52:30;2.10;;;0.70;;
4452;SDS011;2239;48.152;11.584;2023-11-21T10:54:56;1.40;;;0.70;;
4452;SDS011;2239;48.152;11.584;2023-11-21T10:57:24;2.43;;;1.10;;
4452;SDS011;2239;48.152;11.584;2023-11-21T10:59:50;1.47;;;0.90;;
4452;SDS011;2239;48.152;11.584;2023-11-21T11:02:26;3.53;;;0.93;;
4452;SDS011;2239;48.152;11.584;2023-11-21T11:04:53;1.53;;;0.83;;
4452;SDS011;2239;48.152;11.584;2023-11-21T11:07:25;1.60;;;0.90;;
4452;SDS011;2239;48.152;11.584;2023-11-21T11:09:55;1.63;;;1.00;;
4452;SDS011;2239;48.152;11.584;2023-11-21T11:12:21;0.83;;;0.80;;
4452;SDS011;2239;48.152;11.584;2023-11-21T11:14:47;1.57;;;1.10;;
4452;SDS011;2239;48.152;11.584;2023-11-21T11:17:13;1.80;;;0.77;;
4452;SDS011;2239;48.152;11.584;2023-11-21T11:19:39;1.00;;;0.73;;
4452;SDS011;2239;48.152;11.584;2023-11-21T11:24:46;1.77;;;0.70;;
4452;SDS011;2239;48.152;11.584;2023-11-21T11:35:21;0.80;;;0.70;;
4452;SDS011;2239;48.152;11.584;2023-11-21T11:38:02;0.93;;;0.70;;
4452;SDS011;2239;48.152;11.584;2023-11-21T11:40:40;1.00;;;0.90;;
4452;SDS011;2239;48.152;11.584;2023-11-21T11:43:09;1.27;;;0.90;;
4452;SDS011;2239;48.152;11.584;2023-11-21T11:45:35;1.97;;;1.10;;
4452;SDS011;2239;48.152;11.584;2023-11-21T11:48:02;0.90;;;0.80;;
4452;SDS011;2239;48.152;11.584;2023-11-21T11:50:28;1.00;;;0.80;;
4452;SDS011;2239;48.152;11.584;2023-11-21T11:52:55;1.60;;;0.87;;
4452;SDS011;2239;48.152;11.584;2023-11-21T11:55:36;0.97;;;0.70;;
4452;SDS011;2239;48.152;11.584;2023-11-21T11:58:04;2.00;;;0.73;;
4452;SDS011;2239;48.152;11.584;2023-11-21T12:00:34;3.17;;;0.70;;
4452;SDS011;2239;48.152;11.584;2023-11-21T12:03:03;1.47;;;0.93;;
4452;SDS011;2239;48.152;11.584;2023-11-21T12:05:31;0.97;;;0.60;;
4452;SDS011;2239;48.152;11.584;2023-11-21T12:07:59;1.30;;;0.77;;
4452;SDS011;2239;48.152;11.584;2023-11-21T12:10:27;1.70;;;1.00;;
4452;SDS011;2239;48.152;11.584;2023-11-21T12:12:55;1.90;;;0.80;;
4452;SDS011;2239;48.152;11.584;2023-11-21T12:15:23;3.90;;;0.60;;
4452;SDS011;2239;48.152;11.584;2023-11-21T12:17:50;0.83;;;0.70;;
4452;SDS011;2239;48.152;11.584;2023-11-21T12:20:20;0.90;;;0.70;;
4452;SDS011;2239;48.152;11.584;2023-11-21T12:22:48;1.40;;;0.90;;
4452;SDS011;2239;48.152;11.584;2023-11-21T12:25:24;2.23;;;0.70;;
4452;SDS011;2239;48.152;11.584;2023-11-21T12:27:53;1.40;;;0.90;;
4452;SDS011;2239;48.152;11.584;2023-11-21T12:30:20;4.30;;;0.87;;
4452;SDS011;2239;48.152;11.584;2023-11-21T12:32:51;2.13;;;1.10;;
4452;SDS011;2239;48.152;11.584;2023-11-21T12:35:18;1.37;;;0.80;;
4452;SDS011;2239;48.152;11.584;2023-11-21T12:37:46;0.70;;;0.70;;
4452;SDS011;2239;48.152;11.584;2023-11-21T12:40:12;1.73;;;0.73;;
4452;SDS011;2239;48.152;11.584;2023-11-21T12:42:46;0.93;;;0.57;;
4452;SDS011;2239;48.152;11.584;2023-11-21T12:48:01;0.77;;;0.67;;
4452;SDS011;2239;48.152;11.584;2023-11-21T12:50:32;0.70;;;0.70;;
4452;SDS011;2239;48.152;11.584;2023-11-21T12:53:02;1.10;;;0.93;;
4452;SDS011;2239;48.152;11.584;2023-11-21T12:55:30;2.23;;;0.80;;
4452;SDS011;2239;48.152;11.584;2023-11-21T12:57:57;0.80;;;0.50;;
4452;SDS011;2239;48.152;11.584;2023-11-21T13:00:34;1.87;;;0.70;;
4452;SDS011;2239;48.152;11.584;2023-11-21T13:03:05;1.33;;;0.60;;
4452;SDS011;2239;48.152;11.584;2023-11-21T13:05:33;1.17;;;0.80;;
4452;SDS011;2239;48.152;11.584;2023-11-21T13:08:02;1.40;;;0.73;;
4452;SDS011;2239;48.152;11.584;2023-11-21T13:10:32;1.00;;;0.60;;
4452;SDS011;2239;48.152;11.584;2023-11-21T13:13:01;1.03;;;0.60;;
4452;SDS011;2239;48.152;11.584;2023-11-21T13:15:30;2.90;;;0.90;;
4452;SDS011;2239;48.152;11.584;2023-11-21T13:17:57;0.60;;;0.50;;
4452;SDS011;2239;48.152;11.584;2023-11-21T13:20:23;1.23;;;1.03;;
4452;SDS011;2239;48.152;11.584;2023-11-21T13:22:51;2.17;;;0.67;;
4452;SDS011;2239;48.152;11.584;2023-11-21T13:25:25;2.43;;;0.90;;
4452;SDS011;2239;48.152;11.584;2023-11-21T13:27:56;1.57;;;1.37;;
4452;SDS011;2239;48.152;11.584;2023-11-21T13:30:26;54.97;;;17.60;;
4452;SDS011;2239;48.152;11.584;2023-11-21T13:32:58;48.97;;;17.03;;
4452;SDS011;2239;48.152;11.584;2023-11-21T13:35:27;58.10;;;17.57;;
4452;SDS011;2239;48.152;11.584;2023-11-21T13:38:06;53.33;;;17.37;;
4452;SDS011;2239;48.152;11.584;2023-11-21T13:40:36;52.30;;;14.00;;
4452;SDS011;2239;48.152;11.584;2023-11-21T13:43:16;5.50;;;2.17;;
4452;SDS011;2239;48.152;11.584;2023-11-21T13:45:46;5.90;;;1.00;;
4452;SDS011;2239;48.152;11.584;2023-11-21T13:48:14;5.93;;;1.40;;
4452;SDS011;2239;48.152;11.584;2023-11-21T13:50:44;2.30;;;1.00;;
4452;SDS011;2239;48.152;11.584;2023-11-21T13:53:26;1.50;;;1.17;;
4452;SDS011;2239;48.152;11.584;2023-11-21T13:55:52;2.13;;;1.40;;
4452;SDS011;2239;48.152;11.584;2023-11-21T13:58:19;4.37;;;1.27;;
4452;SDS011;2239;48.152;11.584;2023-11-21T14:00:49;4.50;;;1.00;;
4452;SDS011;2239;48.152;11.584;2023-11-21T14:03:22;2.27;;;1.00;;
4452;SDS011;2239;48.152;11.584;2023-11-21T14:05:49;1.57;;;0.80;;
4452;SDS011;2239;48.152;11.584;2023-11-21T14:08:20;0.93;;;0.70;;
4452;SDS011;2239;48.152;11.584;2023-11-21T14:10:47;0.70;;;0.60;;
4452;SDS011;2239;48.152;11.584;2023-11-21T14:13:20;0.80;;;0.60;;
4452;SDS011;2239;48.152;11.584;2023-11-21T14:15:48;2.50;;;0.70;;
4452;SDS011;2239;48.152;11.584;2023-11-21T14:18:17;0.63;;;0.53;;
4452;SDS011;2239;48.152;11.584;2023-11-21T14:20:51;5.50;;;0.80;;
4452;SDS011;2239;48.152;11.584;2023-11-21T14:23:16;1.00;;;0.80;;
4452;SDS011;2239;48.152;11.584;2023-11-21T14:25:43;0.90;;;0.60;;
4452;SDS011;2239;48.152;11.584;2023-11-21T14:28:08;0.97;;;0.60;;
4452;SDS011;2239;48.152;11.584;2023-11-21T14:30:36;0.60;;;0.60;;
4452;SDS011;2239;48.152;11.584;2023-11-21T14:33:04;0.60;;;0.57;;
4452;SDS011;2239;48.152;11.584;2023-11-21T14:35:31;1.23;;;0.70;;
4452;SDS011;2239;48.152;11.584;2023-11-21T14:37:57;0.73;;;0.60;;
4452;SDS011;2239;48.152;11.584;2023-11-21T14:40:24;0.83;;;0.57;;
4452;SDS011;2239;48.152;11.584;2023-11-21T14:42:51;1.03;;;0.70;;
4452;SDS011;2239;48.152;11.584;2023-11-21T14:45:22;1.27;;;0.70;;
4452;SDS011;2239;48.152;11.584;2023-11-21T14:47:51;0.83;;;0.63;;
4452;SDS011;2239;48.152;11.584;2023-11-21T14:50:40;1.63;;;0.80;;
4452;SDS011;2239;48.152;11.584;2023-11-21T14:53:07;1.10;;;0.70;;
4452;SDS011;2239;48.152;11.584;2023-11-21T14:55:34;2.60;;;0.60;;
4452;SDS011;2239;48.152;11.584;2023-11-21T14:58:18;1.67;;;1.00;;
4452;SDS011;2239;48.152;11.584;2023-11-21T15:00:56;1.77;;;0.70;;
4452;SDS011;2239;48.152;11.584;2023-11-21T15:03:27;5.73;;;0.97;;
4452;SDS011;2239;48.152;11.584;2023-11-21T15:05:59;2.37;;;0.83;;
4452;SDS011;2239;48.152;11.584;2023-11-21T15:08:52;1.27;;;1.07;;
4452;SDS011;2239;48.152;11.584;2023-11-21T15:11:46;2.10;;;0.60;;
4452;SDS011;2239;48.152;11.584;2023-11-21T15:14:12;1.30;;;1.00;;
4452;SDS011;2239;48.152;11.584;2023-11-21T15:16:44;0.90;;;0.70;;
4452;SDS011;2239;48.152;11.584;2023-11-21T15:19:15;1.20;;;0.70;;